sensor_id;sensor_type;location;lat;lon;timestamp;P1;durP1;ratioP1;P2;durP2;ratioP2
75386;SDS011;63966;47.914;22.266;2022-12-29T00:02:48;32.30;;;14.88;;
75386;SDS011;63966;47.914;22.266;2022-12-29T00:05:55;33.50;;;15.75;;
75386;SDS011;63966;47.914;22.266;2022-12-29T00:09:00;26.10;;;13.47;;
75386;SDS011;63966;47.914;22.266;2022-12-29T00:12:04;27.48;;;12.30;;
75386;SDS011;63966;47.914;22.266;2022-12-29T00:15:07;32.17;;;14.77;;
75386;SDS011;63966;47.914;22.266;2022-12-29T00:18:29;30.65;;;14.82;;
75386;SDS011;63966;47.914;22.266;2022-12-29T00:21:33;31.08;;;14.35;;
75386;SDS011;63966;47.914;22.266;2022-12-29T00:25:15;25.17;;;13.48;;
75386;SDS011;63966;47.914;22.266;2022-12-29T00:28:38;23.77;;;12.13;;
75386;SDS011;63966;47.914;22.266;2022-12-29T00:32:00;27.57;;;12.83;;
75386;SDS011;63966;47.914;22.266;2022-12-29T00:38:55;24.42;;;11.45;;
75386;SDS011;63966;47.914;22.266;2022-12-29T00:42:24;26.10;;;12.98;;
75386;SDS011;63966;47.914;22.266;2022-12-29T00:45:46;28.00;;;13.40;;
75386;SDS011;63966;47.914;22.266;2022-12-29T00:48:50;24.90;;;13.00;;
75386;SDS011;63966;47.914;22.266;2022-12-29T00:52:13;24.90;;;13.02;;
75386;SDS011;63966;47.914;22.266;2022-12-29T00:55:19;28.63;;;14.03;;
75386;SDS011;63966;47.914;22.266;2022-12-29T00:58:23;26.58;;;13.38;;
75386;SDS011;63966;47.914;22.266;2022-12-29T01:01:28;26.00;;;12.68;;
75386;SDS011;63966;47.914;22.266;2022-12-29T01:04:32;25.48;;;12.07;;
75386;SDS011;63966;47.914;22.266;2022-12-29T01:07:36;27.30;;;11.17;;
75386;SDS011;63966;47.914;22.266;2022-12-29T01:10:40;26.05;;;13.38;;
75386;SDS011;63966;47.914;22.266;2022-12-29T01:13:44;27.10;;;12.57;;
75386;SDS011;63966;47.914;22.266;2022-12-29T01:16:47;26.30;;;13.68;;
75386;SDS011;63966;47.914;22.266;2022-12-29T01:19:51;26.13;;;11.93;;
75386;SDS011;63966;47.914;22.266;2022-12-29T01:22:55;26.55;;;11.90;;
75386;SDS011;63966;47.914;22.266;2022-12-29T01:26:09;25.98;;;12.63;;
75386;SDS011;63966;47.914;22.266;2022-12-29T01:29:14;28.05;;;12.98;;
75386;SDS011;63966;47.914;22.266;2022-12-29T01:32:20;24.60;;;12.33;;
75386;SDS011;63966;47.914;22.266;2022-12-29T01:35:23;28.58;;;13.40;;
75386;SDS011;63966;47.914;22.266;2022-12-29T01:38:27;29.63;;;12.10;;
75386;SDS011;63966;47.914;22.266;2022-12-29T01:41:30;22.70;;;11.63;;
75386;SDS011;63966;47.914;22.266;2022-12-29T01:44:50;23.35;;;11.85;;
75386;SDS011;63966;47.914;22.266;2022-12-29T01:48:01;25.20;;;12.18;;
75386;SDS011;63966;47.914;22.266;2022-12-29T01:51:07;25.08;;;11.98;;
75386;SDS011;63966;47.914;22.266;2022-12-29T01:54:12;26.02;;;11.57;;
75386;SDS011;63966;47.914;22.266;2022-12-29T01:57:25;26.65;;;11.88;;
75386;SDS011;63966;47.914;22.266;2022-12-29T02:00:35;24.10;;;12.27;;
75386;SDS011;63966;47.914;22.266;2022-12-29T02:03:39;24.57;;;11.23;;
75386;SDS011;63966;47.914;22.266;2022-12-29T02:06:48;22.40;;;11.27;;
75386;SDS011;63966;47.914;22.266;2022-12-29T02:10:03;22.50;;;11.80;;
75386;SDS011;63966;47.914;22.266;2022-12-29T02:13:08;22.98;;;10.57;;
75386;SDS011;63966;47.914;22.266;2022-12-29T02:26:35;20.50;;;11.20;;
75386;SDS011;63966;47.914;22.266;2022-12-29T02:33:42;23.92;;;10.70;;
75386;SDS011;63966;47.914;22.266;2022-12-29T02:37:19;20.67;;;11.25;;
75386;SDS011;63966;47.914;22.266;2022-12-29T02:40:45;26.05;;;11.48;;
75386;SDS011;63966;47.914;22.266;2022-12-29T02:50:46;25.98;;;11.52;;
75386;SDS011;63966;47.914;22.266;2022-12-29T02:54:03;25.60;;;11.57;;
75386;SDS011;63966;47.914;22.266;2022-12-29T03:00:31;22.17;;;11.63;;
75386;SDS011;63966;47.914;22.266;2022-12-29T03:03:55;24.20;;;13.07;;
75386;SDS011;63966;47.914;22.266;2022-12-29T03:21:37;23.67;;;11.32;;
75386;SDS011;63966;47.914;22.266;2022-12-29T03:28:32;20.93;;;10.37;;
75386;SDS011;63966;47.914;22.266;2022-12-29T03:31:53;22.92;;;10.82;;
75386;SDS011;63966;47.914;22.266;2022-12-29T03:34:58;24.70;;;11.30;;
75386;SDS011;63966;47.914;22.266;2022-12-29T03:38:19;22.73;;;10.85;;
75386;SDS011;63966;47.914;22.266;2022-12-29T03:41:27;22.35;;;11.25;;
75386;SDS011;63966;47.914;22.266;2022-12-29T03:44:37;25.48;;;12.18;;
75386;SDS011;63966;47.914;22.266;2022-12-29T03:47:43;27.63;;;12.55;;
75386;SDS011;63966;47.914;22.266;2022-12-29T03:50:47;27.30;;;11.47;;
75386;SDS011;63966;47.914;22.266;2022-12-29T03:53:54;22.58;;;10.90;;
75386;SDS011;63966;47.914;22.266;2022-12-29T03:56:58;24.20;;;10.95;;
75386;SDS011;63966;47.914;22.266;2022-12-29T04:00:12;21.37;;;11.07;;
75386;SDS011;63966;47.914;22.266;2022-12-29T04:03:16;23.20;;;11.43;;
75386;SDS011;63966;47.914;22.266;2022-12-29T04:06:20;24.63;;;10.90;;
75386;SDS011;63966;47.914;22.266;2022-12-29T04:09:28;22.13;;;11.32;;
75386;SDS011;63966;47.914;22.266;2022-12-29T04:12:34;24.02;;;10.52;;
75386;SDS011;63966;47.914;22.266;2022-12-29T04:15:37;24.05;;;10.40;;
75386;SDS011;63966;47.914;22.266;2022-12-29T04:18:42;20.75;;;10.05;;
75386;SDS011;63966;47.914;22.266;2022-12-29T04:21:45;22.00;;;10.30;;
75386;SDS011;63966;47.914;22.266;2022-12-29T04:24:49;21.10;;;10.48;;
75386;SDS011;63966;47.914;22.266;2022-12-29T04:27:53;20.83;;;10.07;;
75386;SDS011;63966;47.914;22.266;2022-12-29T04:31:32;21.15;;;10.25;;
75386;SDS011;63966;47.914;22.266;2022-12-29T04:34:36;22.97;;;10.20;;
75386;SDS011;63966;47.914;22.266;2022-12-29T04:37:40;22.45;;;10.18;;
75386;SDS011;63966;47.914;22.266;2022-12-29T04:40:44;25.67;;;10.98;;
75386;SDS011;63966;47.914;22.266;2022-12-29T04:43:49;25.60;;;11.18;;
75386;SDS011;63966;47.914;22.266;2022-12-29T04:47:11;25.10;;;10.68;;
75386;SDS011;63966;47.914;22.266;2022-12-29T04:50:24;24.63;;;11.10;;
75386;SDS011;63966;47.914;22.266;2022-12-29T04:53:50;22.52;;;10.18;;
75386;SDS011;63966;47.914;22.266;2022-12-29T04:56:54;22.17;;;10.47;;
75386;SDS011;63966;47.914;22.266;2022-12-29T04:59:59;22.27;;;10.32;;
75386;SDS011;63966;47.914;22.266;2022-12-29T05:03:02;22.88;;;10.38;;
75386;SDS011;63966;47.914;22.266;2022-12-29T05:06:06;19.63;;;9.73;;
75386;SDS011;63966;47.914;22.266;2022-12-29T05:09:10;22.20;;;10.07;;
75386;SDS011;63966;47.914;22.266;2022-12-29T05:12:13;25.08;;;10.95;;
75386;SDS011;63966;47.914;22.266;2022-12-29T05:15:36;23.80;;;10.63;;
75386;SDS011;63966;47.914;22.266;2022-12-29T05:18:40;19.98;;;10.25;;
75386;SDS011;63966;47.914;22.266;2022-12-29T05:21:44;20.10;;;10.07;;
75386;SDS011;63966;47.914;22.266;2022-12-29T05:24:47;20.55;;;9.52;;
75386;SDS011;63966;47.914;22.266;2022-12-29T05:27:51;22.65;;;10.32;;
75386;SDS011;63966;47.914;22.266;2022-12-29T05:31:13;20.33;;;10.35;;
75386;SDS011;63966;47.914;22.266;2022-12-29T05:34:18;19.80;;;9.57;;
75386;SDS011;63966;47.914;22.266;2022-12-29T05:37:22;25.40;;;10.30;;
75386;SDS011;63966;47.914;22.266;2022-12-29T05:40:25;19.15;;;9.90;;
75386;SDS011;63966;47.914;22.266;2022-12-29T05:43:33;20.23;;;9.40;;
75386;SDS011;63966;47.914;22.266;2022-12-29T05:46:48;23.20;;;10.35;;
75386;SDS011;63966;47.914;22.266;2022-12-29T05:50:14;20.65;;;9.82;;
75386;SDS011;63966;47.914;22.266;2022-12-29T05:53:43;18.95;;;9.48;;
75386;SDS011;63966;47.914;22.266;2022-12-29T05:56:46;19.00;;;8.97;;
75386;SDS011;63966;47.914;22.266;2022-12-29T05:59:50;19.23;;;9.57;;
75386;SDS011;63966;47.914;22.266;2022-12-29T06:02:55;20.42;;;9.50;;
75386;SDS011;63966;47.914;22.266;2022-12-29T06:05:58;23.08;;;8.93;;
75386;SDS011;63966;47.914;22.266;2022-12-29T06:09:02;25.13;;;9.25;;
75386;SDS011;63966;47.914;22.266;2022-12-29T06:12:06;18.58;;;9.32;;
75386;SDS011;63966;47.914;22.266;2022-12-29T06:15:11;21.77;;;9.88;;
75386;SDS011;63966;47.914;22.266;2022-12-29T06:18:16;22.47;;;9.77;;
75386;SDS011;63966;47.914;22.266;2022-12-29T06:21:22;22.90;;;10.18;;
75386;SDS011;63966;47.914;22.266;2022-12-29T06:24:25;19.95;;;9.57;;
75386;SDS011;63966;47.914;22.266;2022-12-29T06:27:29;20.63;;;9.13;;
75386;SDS011;63966;47.914;22.266;2022-12-29T06:30:32;24.80;;;11.68;;
75386;SDS011;63966;47.914;22.266;2022-12-29T06:33:37;22.65;;;10.52;;
75386;SDS011;63966;47.914;22.266;2022-12-29T06:36:41;18.10;;;8.70;;
75386;SDS011;63966;47.914;22.266;2022-12-29T06:39:44;18.63;;;8.67;;
75386;SDS011;63966;47.914;22.266;2022-12-29T06:42:49;21.60;;;10.07;;
75386;SDS011;63966;47.914;22.266;2022-12-29T06:46:07;20.23;;;8.25;;
75386;SDS011;63966;47.914;22.266;2022-12-29T06:49:11;19.48;;;8.40;;
75386;SDS011;63966;47.914;22.266;2022-12-29T06:52:15;24.60;;;9.67;;
75386;SDS011;63966;47.914;22.266;2022-12-29T06:55:19;22.88;;;8.60;;
75386;SDS011;63966;47.914;22.266;2022-12-29T06:58:23;16.23;;;8.93;;
75386;SDS011;63966;47.914;22.266;2022-12-29T07:01:27;21.70;;;9.05;;
75386;SDS011;63966;47.914;22.266;2022-12-29T07:04:30;18.87;;;8.30;;
75386;SDS011;63966;47.914;22.266;2022-12-29T07:07:34;19.30;;;8.95;;
75386;SDS011;63966;47.914;22.266;2022-12-29T07:10:38;17.88;;;8.93;;
75386;SDS011;63966;47.914;22.266;2022-12-29T07:13:41;17.15;;;9.18;;
75386;SDS011;63966;47.914;22.266;2022-12-29T07:16:45;16.83;;;9.17;;
75386;SDS011;63966;47.914;22.266;2022-12-29T07:19:48;17.30;;;8.43;;
75386;SDS011;63966;47.914;22.266;2022-12-29T07:22:52;17.88;;;9.50;;
75386;SDS011;63966;47.914;22.266;2022-12-29T07:26:02;20.15;;;9.35;;
75386;SDS011;63966;47.914;22.266;2022-12-29T07:29:08;18.52;;;8.80;;
75386;SDS011;63966;47.914;22.266;2022-12-29T07:32:11;18.83;;;9.30;;
75386;SDS011;63966;47.914;22.266;2022-12-29T07:35:15;20.08;;;8.98;;
75386;SDS011;63966;47.914;22.266;2022-12-29T07:38:19;11.82;;;7.50;;
75386;SDS011;63966;47.914;22.266;2022-12-29T07:41:22;17.58;;;9.00;;
75386;SDS011;63966;47.914;22.266;2022-12-29T07:44:26;21.27;;;10.20;;
75386;SDS011;63966;47.914;22.266;2022-12-29T07:47:55;14.70;;;7.67;;
75386;SDS011;63966;47.914;22.266;2022-12-29T07:50:59;15.43;;;8.13;;
75386;SDS011;63966;47.914;22.266;2022-12-29T07:54:02;19.10;;;8.77;;
75386;SDS011;63966;47.914;22.266;2022-12-29T07:57:06;16.17;;;8.43;;
75386;SDS011;63966;47.914;22.266;2022-12-29T08:00:09;14.55;;;6.63;;
75386;SDS011;63966;47.914;22.266;2022-12-29T08:03:14;15.70;;;7.07;;
75386;SDS011;63966;47.914;22.266;2022-12-29T08:06:17;15.48;;;7.72;;
75386;SDS011;63966;47.914;22.266;2022-12-29T08:09:22;12.73;;;5.60;;
75386;SDS011;63966;47.914;22.266;2022-12-29T08:12:26;16.58;;;8.30;;
75386;SDS011;63966;47.914;22.266;2022-12-29T08:15:30;12.25;;;6.18;;
75386;SDS011;63966;47.914;22.266;2022-12-29T08:18:34;12.87;;;6.50;;
75386;SDS011;63966;47.914;22.266;2022-12-29T08:21:37;13.93;;;6.55;;
75386;SDS011;63966;47.914;22.266;2022-12-29T08:24:41;15.13;;;6.95;;
75386;SDS011;63966;47.914;22.266;2022-12-29T08:27:44;12.40;;;6.55;;
75386;SDS011;63966;47.914;22.266;2022-12-29T08:30:48;17.07;;;7.67;;
75386;SDS011;63966;47.914;22.266;2022-12-29T08:33:51;12.45;;;5.63;;
75386;SDS011;63966;47.914;22.266;2022-12-29T08:36:55;12.40;;;5.93;;
75386;SDS011;63966;47.914;22.266;2022-12-29T08:39:59;14.20;;;6.60;;
75386;SDS011;63966;47.914;22.266;2022-12-29T08:43:06;12.45;;;5.78;;
75386;SDS011;63966;47.914;22.266;2022-12-29T08:46:10;13.07;;;6.47;;
75386;SDS011;63966;47.914;22.266;2022-12-29T08:49:13;16.27;;;7.13;;
75386;SDS011;63966;47.914;22.266;2022-12-29T08:52:17;15.68;;;7.72;;
75386;SDS011;63966;47.914;22.266;2022-12-29T09:06:21;13.47;;;6.80;;
75386;SDS011;63966;47.914;22.266;2022-12-29T09:09:24;15.30;;;7.65;;
75386;SDS011;63966;47.914;22.266;2022-12-29T09:12:28;19.67;;;8.27;;
75386;SDS011;63966;47.914;22.266;2022-12-29T09:15:38;13.13;;;7.47;;
75386;SDS011;63966;47.914;22.266;2022-12-29T09:18:42;14.48;;;6.68;;
75386;SDS011;63966;47.914;22.266;2022-12-29T09:21:47;15.90;;;7.40;;
75386;SDS011;63966;47.914;22.266;2022-12-29T09:24:50;13.70;;;7.35;;
75386;SDS011;63966;47.914;22.266;2022-12-29T09:27:54;13.05;;;6.88;;
75386;SDS011;63966;47.914;22.266;2022-12-29T09:30:57;15.32;;;7.32;;
75386;SDS011;63966;47.914;22.266;2022-12-29T09:34:01;12.82;;;6.85;;
75386;SDS011;63966;47.914;22.266;2022-12-29T09:37:05;13.93;;;7.20;;
75386;SDS011;63966;47.914;22.266;2022-12-29T09:40:25;13.43;;;6.35;;
75386;SDS011;63966;47.914;22.266;2022-12-29T09:46:44;14.43;;;6.85;;
75386;SDS011;63966;47.914;22.266;2022-12-29T09:53:03;15.43;;;7.67;;
75386;SDS011;63966;47.914;22.266;2022-12-29T09:56:19;15.57;;;7.80;;
75386;SDS011;63966;47.914;22.266;2022-12-29T09:59:27;16.50;;;7.32;;
75386;SDS011;63966;47.914;22.266;2022-12-29T10:02:54;14.38;;;7.32;;
75386;SDS011;63966;47.914;22.266;2022-12-29T17:26:23;15.27;;;7.10;;
75386;SDS011;63966;47.914;22.266;2022-12-29T17:30:01;17.10;;;7.30;;
75386;SDS011;63966;47.914;22.266;2022-12-29T17:33:36;14.27;;;6.95;;
75386;SDS011;63966;47.914;22.266;2022-12-29T17:41:13;15.02;;;7.25;;
75386;SDS011;63966;47.914;22.266;2022-12-29T17:44:55;17.25;;;7.32;;
75386;SDS011;63966;47.914;22.266;2022-12-29T17:48:25;15.40;;;7.77;;
75386;SDS011;63966;47.914;22.266;2022-12-29T17:52:37;16.38;;;7.40;;
75386;SDS011;63966;47.914;22.266;2022-12-29T17:56:07;19.17;;;7.53;;
75386;SDS011;63966;47.914;22.266;2022-12-29T18:00:02;15.73;;;7.07;;
75386;SDS011;63966;47.914;22.266;2022-12-29T18:03:49;14.15;;;7.13;;
75386;SDS011;63966;47.914;22.266;2022-12-29T18:07:18;15.93;;;7.67;;
75386;SDS011;63966;47.914;22.266;2022-12-29T18:10:46;16.02;;;7.82;;
75386;SDS011;63966;47.914;22.266;2022-12-29T18:14:40;13.65;;;7.03;;
75386;SDS011;63966;47.914;22.266;2022-12-29T18:18:39;17.70;;;7.32;;
75386;SDS011;63966;47.914;22.266;2022-12-29T18:22:38;16.25;;;7.47;;
75386;SDS011;63966;47.914;22.266;2022-12-29T18:26:26;15.37;;;6.70;;
75386;SDS011;63966;47.914;22.266;2022-12-29T18:30:10;14.82;;;7.18;;
75386;SDS011;63966;47.914;22.266;2022-12-29T18:33:36;14.00;;;7.40;;
